sensor_id;sensor_type;location;lat;lon;timestamp;P1;durP1;ratioP1;P2;durP2;ratioP2
24897;SDS011;12957;49.434;8.684;2023-07-13T00:00:41;7.53;;;1.40;;
24897;SDS011;12957;49.434;8.684;2023-07-13T00:03:07;1.60;;;1.20;;
24897;SDS011;12957;49.434;8.684;2023-07-13T00:05:33;2.63;;;1.25;;
24897;SDS011;12957;49.434;8.684;2023-07-13T00:07:58;2.25;;;1.20;;
24897;SDS011;12957;49.434;8.684;2023-07-13T00:10:24;1.52;;;1.20;;
24897;SDS011;12957;49.434;8.684;2023-07-13T00:12:49;2.80;;;1.38;;
24897;SDS011;12957;49.434;8.684;2023-07-13T00:15:20;2.17;;;1.48;;
24897;SDS011;12957;49.434;8.684;2023-07-13T00:17:53;4.80;;;1.30;;
24897;SDS011;12957;49.434;8.684;2023-07-13T00:20:23;2.10;;;1.27;;
24897;SDS011;12957;49.434;8.684;2023-07-13T00:22:50;1.88;;;1.30;;
24897;SDS011;12957;49.434;8.684;2023-07-13T00:25:18;2.53;;;1.20;;
24897;SDS011;12957;49.434;8.684;2023-07-13T00:27:43;2.15;;;1.42;;
24897;SDS011;12957;49.434;8.684;2023-07-13T00:30:09;1.73;;;1.20;;
24897;SDS011;12957;49.434;8.684;2023-07-13T00:32:35;3.45;;;1.40;;
24897;SDS011;12957;49.434;8.684;2023-07-13T00:35:01;2.15;;;1.20;;
24897;SDS011;12957;49.434;8.684;2023-07-13T00:37:28;1.92;;;1.30;;
24897;SDS011;12957;49.434;8.684;2023-07-13T00:39:54;1.40;;;1.10;;
24897;SDS011;12957;49.434;8.684;2023-07-13T00:42:19;1.83;;;1.23;;
24897;SDS011;12957;49.434;8.684;2023-07-13T00:47:36;1.73;;;1.23;;
24897;SDS011;12957;49.434;8.684;2023-07-13T00:50:02;1.48;;;1.35;;
24897;SDS011;12957;49.434;8.684;2023-07-13T00:52:28;2.13;;;1.60;;
24897;SDS011;12957;49.434;8.684;2023-07-13T00:54:54;1.60;;;1.20;;
24897;SDS011;12957;49.434;8.684;2023-07-13T00:57:20;3.28;;;1.48;;
24897;SDS011;12957;49.434;8.684;2023-07-13T00:59:47;1.70;;;1.60;;
24897;SDS011;12957;49.434;8.684;2023-07-13T01:02:16;4.13;;;1.63;;
24897;SDS011;12957;49.434;8.684;2023-07-13T01:04:42;5.07;;;1.70;;
24897;SDS011;12957;49.434;8.684;2023-07-13T01:07:09;8.98;;;1.63;;
24897;SDS011;12957;49.434;8.684;2023-07-13T01:09:36;2.30;;;1.50;;
24897;SDS011;12957;49.434;8.684;2023-07-13T01:12:01;2.40;;;1.60;;
24897;SDS011;12957;49.434;8.684;2023-07-13T01:14:28;2.45;;;1.50;;
24897;SDS011;12957;49.434;8.684;2023-07-13T01:16:53;3.05;;;1.88;;
24897;SDS011;12957;49.434;8.684;2023-07-13T01:22:00;1.73;;;1.63;;
24897;SDS011;12957;49.434;8.684;2023-07-13T01:24:26;2.55;;;1.80;;
24897;SDS011;12957;49.434;8.684;2023-07-13T01:26:52;3.47;;;1.80;;
24897;SDS011;12957;49.434;8.684;2023-07-13T01:29:17;4.68;;;1.75;;
24897;SDS011;12957;49.434;8.684;2023-07-13T01:31:43;1.63;;;1.45;;
24897;SDS011;12957;49.434;8.684;2023-07-13T01:34:09;3.05;;;1.63;;
24897;SDS011;12957;49.434;8.684;2023-07-13T01:36:35;5.63;;;1.85;;
24897;SDS011;12957;49.434;8.684;2023-07-13T01:39:01;7.13;;;1.60;;
24897;SDS011;12957;49.434;8.684;2023-07-13T01:41:27;4.43;;;1.60;;
24897;SDS011;12957;49.434;8.684;2023-07-13T01:43:52;4.05;;;1.90;;
24897;SDS011;12957;49.434;8.684;2023-07-13T01:46:18;2.90;;;1.67;;
24897;SDS011;12957;49.434;8.684;2023-07-13T01:48:43;4.05;;;1.70;;
24897;SDS011;12957;49.434;8.684;2023-07-13T01:51:09;6.05;;;1.75;;
24897;SDS011;12957;49.434;8.684;2023-07-13T01:53:34;3.67;;;1.60;;
24897;SDS011;12957;49.434;8.684;2023-07-13T01:56:00;2.92;;;1.70;;
24897;SDS011;12957;49.434;8.684;2023-07-13T01:58:25;2.97;;;1.92;;
24897;SDS011;12957;49.434;8.684;2023-07-13T02:00:51;2.33;;;1.77;;
24897;SDS011;12957;49.434;8.684;2023-07-13T02:03:16;3.92;;;1.83;;
24897;SDS011;12957;49.434;8.684;2023-07-13T02:05:43;2.65;;;1.77;;
24897;SDS011;12957;49.434;8.684;2023-07-13T02:08:09;2.65;;;1.80;;
24897;SDS011;12957;49.434;8.684;2023-07-13T02:10:34;3.33;;;1.90;;
24897;SDS011;12957;49.434;8.684;2023-07-13T02:13:00;5.75;;;1.80;;
24897;SDS011;12957;49.434;8.684;2023-07-13T02:15:25;2.50;;;1.95;;
24897;SDS011;12957;49.434;8.684;2023-07-13T02:17:51;1.75;;;1.65;;
24897;SDS011;12957;49.434;8.684;2023-07-13T02:20:16;3.95;;;2.00;;
24897;SDS011;12957;49.434;8.684;2023-07-13T02:22:42;4.43;;;2.08;;
24897;SDS011;12957;49.434;8.684;2023-07-13T02:25:07;2.55;;;1.90;;
24897;SDS011;12957;49.434;8.684;2023-07-13T02:27:33;3.58;;;2.00;;
24897;SDS011;12957;49.434;8.684;2023-07-13T02:29:59;5.63;;;2.60;;
24897;SDS011;12957;49.434;8.684;2023-07-13T02:32:24;3.88;;;2.17;;
24897;SDS011;12957;49.434;8.684;2023-07-13T02:34:50;2.53;;;2.10;;
24897;SDS011;12957;49.434;8.684;2023-07-13T02:37:17;5.00;;;2.42;;
24897;SDS011;12957;49.434;8.684;2023-07-13T02:39:42;3.08;;;1.95;;
24897;SDS011;12957;49.434;8.684;2023-07-13T02:42:08;2.53;;;2.20;;
24897;SDS011;12957;49.434;8.684;2023-07-13T02:44:33;3.45;;;2.30;;
24897;SDS011;12957;49.434;8.684;2023-07-13T02:46:59;3.67;;;1.83;;
24897;SDS011;12957;49.434;8.684;2023-07-13T02:49:25;2.05;;;1.85;;
24897;SDS011;12957;49.434;8.684;2023-07-13T02:51:50;2.17;;;1.90;;
24897;SDS011;12957;49.434;8.684;2023-07-13T02:54:16;4.53;;;2.03;;
24897;SDS011;12957;49.434;8.684;2023-07-13T02:56:41;5.88;;;2.13;;
24897;SDS011;12957;49.434;8.684;2023-07-13T02:59:08;4.15;;;1.98;;
24897;SDS011;12957;49.434;8.684;2023-07-13T03:01:34;3.85;;;2.10;;
24897;SDS011;12957;49.434;8.684;2023-07-13T03:04:00;5.00;;;2.20;;
24897;SDS011;12957;49.434;8.684;2023-07-13T03:06:25;4.85;;;2.30;;
24897;SDS011;12957;49.434;8.684;2023-07-13T03:08:54;3.35;;;2.00;;
24897;SDS011;12957;49.434;8.684;2023-07-13T03:11:20;2.28;;;2.17;;
24897;SDS011;12957;49.434;8.684;2023-07-13T03:13:46;5.45;;;2.05;;
24897;SDS011;12957;49.434;8.684;2023-07-13T03:16:12;3.90;;;2.10;;
24897;SDS011;12957;49.434;8.684;2023-07-13T03:18:39;4.43;;;2.03;;
24897;SDS011;12957;49.434;8.684;2023-07-13T03:21:05;3.03;;;2.08;;
24897;SDS011;12957;49.434;8.684;2023-07-13T03:23:30;6.47;;;2.15;;
24897;SDS011;12957;49.434;8.684;2023-07-13T03:28:27;8.05;;;2.00;;
24897;SDS011;12957;49.434;8.684;2023-07-13T03:33:46;4.72;;;2.10;;
24897;SDS011;12957;49.434;8.684;2023-07-13T03:36:13;2.17;;;2.00;;
24897;SDS011;12957;49.434;8.684;2023-07-13T03:38:50;4.97;;;2.03;;
24897;SDS011;12957;49.434;8.684;2023-07-13T03:41:17;4.03;;;1.95;;
24897;SDS011;12957;49.434;8.684;2023-07-13T03:43:42;3.85;;;2.13;;
24897;SDS011;12957;49.434;8.684;2023-07-13T03:46:08;1.90;;;1.80;;
24897;SDS011;12957;49.434;8.684;2023-07-13T03:48:34;4.88;;;2.25;;
24897;SDS011;12957;49.434;8.684;2023-07-13T03:50:59;2.20;;;1.70;;
24897;SDS011;12957;49.434;8.684;2023-07-13T03:53:25;4.93;;;2.13;;
24897;SDS011;12957;49.434;8.684;2023-07-13T03:55:50;4.55;;;1.70;;
24897;SDS011;12957;49.434;8.684;2023-07-13T03:58:32;1.88;;;1.77;;
24897;SDS011;12957;49.434;8.684;2023-07-13T04:00:59;3.67;;;1.90;;
24897;SDS011;12957;49.434;8.684;2023-07-13T04:03:25;3.40;;;2.00;;
24897;SDS011;12957;49.434;8.684;2023-07-13T04:05:53;3.50;;;1.80;;
24897;SDS011;12957;49.434;8.684;2023-07-13T04:08:19;2.90;;;1.77;;
24897;SDS011;12957;49.434;8.684;2023-07-13T04:10:45;2.92;;;1.98;;
24897;SDS011;12957;49.434;8.684;2023-07-13T04:13:11;4.97;;;1.95;;
24897;SDS011;12957;49.434;8.684;2023-07-13T04:15:36;1.60;;;1.50;;
24897;SDS011;12957;49.434;8.684;2023-07-13T04:18:02;1.63;;;1.52;;
24897;SDS011;12957;49.434;8.684;2023-07-13T04:20:28;1.83;;;1.58;;
24897;SDS011;12957;49.434;8.684;2023-07-13T04:22:54;3.45;;;1.92;;
24897;SDS011;12957;49.434;8.684;2023-07-13T04:25:20;1.90;;;1.75;;
24897;SDS011;12957;49.434;8.684;2023-07-13T04:27:46;1.50;;;1.40;;
24897;SDS011;12957;49.434;8.684;2023-07-13T04:30:12;2.03;;;1.48;;
24897;SDS011;12957;49.434;8.684;2023-07-13T04:32:37;2.75;;;1.60;;
24897;SDS011;12957;49.434;8.684;2023-07-13T04:35:03;4.68;;;1.67;;
24897;SDS011;12957;49.434;8.684;2023-07-13T04:37:29;1.48;;;1.40;;
24897;SDS011;12957;49.434;8.684;2023-07-13T04:39:55;1.48;;;1.38;;
24897;SDS011;12957;49.434;8.684;2023-07-13T04:42:20;3.17;;;1.42;;
24897;SDS011;12957;49.434;8.684;2023-07-13T04:44:49;2.13;;;1.60;;
24897;SDS011;12957;49.434;8.684;2023-07-13T04:47:15;1.85;;;1.60;;
24897;SDS011;12957;49.434;8.684;2023-07-13T04:49:41;1.88;;;1.40;;
24897;SDS011;12957;49.434;8.684;2023-07-13T04:52:06;2.45;;;1.50;;
24897;SDS011;12957;49.434;8.684;2023-07-13T04:54:32;3.13;;;1.52;;
24897;SDS011;12957;49.434;8.684;2023-07-13T04:56:58;2.05;;;1.40;;
24897;SDS011;12957;49.434;8.684;2023-07-13T04:59:24;1.25;;;1.20;;
24897;SDS011;12957;49.434;8.684;2023-07-13T05:01:50;1.70;;;1.33;;
24897;SDS011;12957;49.434;8.684;2023-07-13T05:04:16;6.10;;;1.60;;
24897;SDS011;12957;49.434;8.684;2023-07-13T05:06:41;1.73;;;1.60;;
24897;SDS011;12957;49.434;8.684;2023-07-13T05:09:07;3.78;;;1.42;;
24897;SDS011;12957;49.434;8.684;2023-07-13T05:11:32;2.40;;;1.40;;
24897;SDS011;12957;49.434;8.684;2023-07-13T05:13:58;1.83;;;1.52;;
24897;SDS011;12957;49.434;8.684;2023-07-13T05:16:23;3.08;;;1.40;;
24897;SDS011;12957;49.434;8.684;2023-07-13T05:18:49;2.70;;;1.52;;
24897;SDS011;12957;49.434;8.684;2023-07-13T05:21:14;1.35;;;1.10;;
24897;SDS011;12957;49.434;8.684;2023-07-13T05:23:40;1.90;;;1.42;;
24897;SDS011;12957;49.434;8.684;2023-07-13T05:26:06;2.13;;;1.27;;
24897;SDS011;12957;49.434;8.684;2023-07-13T05:28:32;3.58;;;1.33;;
24897;SDS011;12957;49.434;8.684;2023-07-13T05:30:58;2.08;;;1.30;;
24897;SDS011;12957;49.434;8.684;2023-07-13T05:33:24;1.20;;;1.10;;
24897;SDS011;12957;49.434;8.684;2023-07-13T05:35:50;2.00;;;1.20;;
24897;SDS011;12957;49.434;8.684;2023-07-13T05:38:15;1.77;;;1.30;;
24897;SDS011;12957;49.434;8.684;2023-07-13T05:40:44;3.35;;;1.33;;
24897;SDS011;12957;49.434;8.684;2023-07-13T05:43:10;3.28;;;1.17;;
24897;SDS011;12957;49.434;8.684;2023-07-13T05:45:36;6.68;;;1.33;;
24897;SDS011;12957;49.434;8.684;2023-07-13T05:48:01;5.13;;;1.60;;
24897;SDS011;12957;49.434;8.684;2023-07-13T05:50:27;2.42;;;1.15;;
24897;SDS011;12957;49.434;8.684;2023-07-13T05:52:52;3.78;;;1.33;;
24897;SDS011;12957;49.434;8.684;2023-07-13T05:55:21;3.28;;;1.48;;
24897;SDS011;12957;49.434;8.684;2023-07-13T05:57:47;3.78;;;1.23;;
24897;SDS011;12957;49.434;8.684;2023-07-13T06:00:13;2.78;;;1.42;;
24897;SDS011;12957;49.434;8.684;2023-07-13T06:02:38;5.60;;;1.60;;
24897;SDS011;12957;49.434;8.684;2023-07-13T06:05:04;2.45;;;1.77;;
24897;SDS011;12957;49.434;8.684;2023-07-13T06:07:30;3.15;;;1.70;;
24897;SDS011;12957;49.434;8.684;2023-07-13T06:09:55;2.17;;;1.45;;
24897;SDS011;12957;49.434;8.684;2023-07-13T06:12:21;3.88;;;1.50;;
24897;SDS011;12957;49.434;8.684;2023-07-13T06:14:46;2.28;;;1.80;;
24897;SDS011;12957;49.434;8.684;2023-07-13T06:17:12;2.58;;;1.63;;
24897;SDS011;12957;49.434;8.684;2023-07-13T06:19:37;5.35;;;1.98;;
24897;SDS011;12957;49.434;8.684;2023-07-13T06:22:03;7.68;;;1.83;;
24897;SDS011;12957;49.434;8.684;2023-07-13T06:24:29;6.78;;;1.90;;
24897;SDS011;12957;49.434;8.684;2023-07-13T06:26:54;2.08;;;1.65;;
24897;SDS011;12957;49.434;8.684;2023-07-13T06:29:20;4.90;;;1.60;;
24897;SDS011;12957;49.434;8.684;2023-07-13T06:31:45;6.82;;;1.40;;
24897;SDS011;12957;49.434;8.684;2023-07-13T06:34:11;1.65;;;1.55;;
24897;SDS011;12957;49.434;8.684;2023-07-13T06:36:36;3.58;;;1.70;;
24897;SDS011;12957;49.434;8.684;2023-07-13T06:39:03;4.93;;;1.60;;
24897;SDS011;12957;49.434;8.684;2023-07-13T06:41:32;3.90;;;1.58;;
24897;SDS011;12957;49.434;8.684;2023-07-13T06:43:58;5.90;;;1.90;;
24897;SDS011;12957;49.434;8.684;2023-07-13T06:46:23;4.32;;;1.50;;
24897;SDS011;12957;49.434;8.684;2023-07-13T06:48:49;2.22;;;1.50;;
24897;SDS011;12957;49.434;8.684;2023-07-13T06:51:15;5.40;;;1.60;;
24897;SDS011;12957;49.434;8.684;2023-07-13T06:53:40;1.98;;;1.45;;
24897;SDS011;12957;49.434;8.684;2023-07-13T06:56:07;1.95;;;1.65;;
24897;SDS011;12957;49.434;8.684;2023-07-13T06:58:33;3.88;;;1.67;;
24897;SDS011;12957;49.434;8.684;2023-07-13T07:00:59;5.07;;;1.63;;
24897;SDS011;12957;49.434;8.684;2023-07-13T07:03:25;5.65;;;2.25;;
24897;SDS011;12957;49.434;8.684;2023-07-13T07:05:50;4.85;;;1.60;;
24897;SDS011;12957;49.434;8.684;2023-07-13T07:08:16;5.85;;;1.70;;
24897;SDS011;12957;49.434;8.684;2023-07-13T07:10:41;3.92;;;1.60;;
24897;SDS011;12957;49.434;8.684;2023-07-13T07:13:07;2.67;;;1.52;;
24897;SDS011;12957;49.434;8.684;2023-07-13T07:15:33;5.72;;;1.73;;
24897;SDS011;12957;49.434;8.684;2023-07-13T07:17:59;6.63;;;1.52;;
24897;SDS011;12957;49.434;8.684;2023-07-13T07:20:25;6.00;;;1.50;;
24897;SDS011;12957;49.434;8.684;2023-07-13T07:22:51;2.63;;;1.25;;
24897;SDS011;12957;49.434;8.684;2023-07-13T07:25:17;4.85;;;1.95;;
24897;SDS011;12957;49.434;8.684;2023-07-13T07:27:43;1.67;;;1.30;;
24897;SDS011;12957;49.434;8.684;2023-07-13T07:30:08;2.70;;;1.40;;
24897;SDS011;12957;49.434;8.684;2023-07-13T07:32:34;3.35;;;1.40;;
24897;SDS011;12957;49.434;8.684;2023-07-13T07:34:59;2.22;;;1.27;;
24897;SDS011;12957;49.434;8.684;2023-07-13T07:37:25;4.97;;;1.25;;
24897;SDS011;12957;49.434;8.684;2023-07-13T07:39:51;2.60;;;1.38;;
24897;SDS011;12957;49.434;8.684;2023-07-13T07:42:16;3.45;;;1.30;;
24897;SDS011;12957;49.434;8.684;2023-07-13T07:44:42;2.25;;;1.73;;
24897;SDS011;12957;49.434;8.684;2023-07-13T07:47:08;2.55;;;1.27;;
24897;SDS011;12957;49.434;8.684;2023-07-13T07:49:34;2.17;;;1.00;;
24897;SDS011;12957;49.434;8.684;2023-07-13T07:52:00;2.53;;;1.20;;
24897;SDS011;12957;49.434;8.684;2023-07-13T07:54:25;3.63;;;1.52;;
24897;SDS011;12957;49.434;8.684;2023-07-13T07:56:51;2.60;;;1.40;;
24897;SDS011;12957;49.434;8.684;2023-07-13T07:59:16;3.38;;;1.50;;
24897;SDS011;12957;49.434;8.684;2023-07-13T08:01:42;5.53;;;1.65;;
24897;SDS011;12957;49.434;8.684;2023-07-13T08:04:10;3.08;;;1.67;;
24897;SDS011;12957;49.434;8.684;2023-07-13T08:06:36;2.47;;;1.25;;
24897;SDS011;12957;49.434;8.684;2023-07-13T08:09:01;3.65;;;1.33;;
24897;SDS011;12957;49.434;8.684;2023-07-13T08:11:29;2.72;;;1.40;;
24897;SDS011;12957;49.434;8.684;2023-07-13T08:13:54;3.88;;;1.60;;
24897;SDS011;12957;49.434;8.684;2023-07-13T08:16:20;2.28;;;1.20;;
24897;SDS011;12957;49.434;8.684;2023-07-13T08:18:45;4.43;;;1.20;;
24897;SDS011;12957;49.434;8.684;2023-07-13T08:21:11;2.22;;;1.40;;
24897;SDS011;12957;49.434;8.684;2023-07-13T08:23:36;3.00;;;1.63;;
24897;SDS011;12957;49.434;8.684;2023-07-13T08:26:02;3.40;;;1.80;;
24897;SDS011;12957;49.434;8.684;2023-07-13T08:28:29;2.67;;;1.30;;
24897;SDS011;12957;49.434;8.684;2023-07-13T08:30:59;2.67;;;1.90;;
24897;SDS011;12957;49.434;8.684;2023-07-13T08:33:25;3.03;;;1.70;;
24897;SDS011;12957;49.434;8.684;2023-07-13T08:35:51;8.10;;;1.60;;
24897;SDS011;12957;49.434;8.684;2023-07-13T08:38:17;4.53;;;1.52;;
24897;SDS011;12957;49.434;8.684;2023-07-13T08:40:43;6.32;;;2.13;;
24897;SDS011;12957;49.434;8.684;2023-07-13T08:43:13;5.10;;;1.77;;
24897;SDS011;12957;49.434;8.684;2023-07-13T08:45:49;3.13;;;2.10;;
24897;SDS011;12957;49.434;8.684;2023-07-13T08:51:12;3.20;;;1.35;;
24897;SDS011;12957;49.434;8.684;2023-07-13T08:53:52;3.13;;;1.65;;
24897;SDS011;12957;49.434;8.684;2023-07-13T08:56:21;4.07;;;1.90;;
24897;SDS011;12957;49.434;8.684;2023-07-13T08:59:00;6.05;;;1.73;;
24897;SDS011;12957;49.434;8.684;2023-07-13T09:01:34;4.63;;;1.77;;
24897;SDS011;12957;49.434;8.684;2023-07-13T09:14:44;4.13;;;1.98;;
24897;SDS011;12957;49.434;8.684;2023-07-13T09:17:14;2.72;;;1.60;;
24897;SDS011;12957;49.434;8.684;2023-07-13T09:19:42;4.90;;;1.55;;
24897;SDS011;12957;49.434;8.684;2023-07-13T09:22:11;2.90;;;1.58;;
24897;SDS011;12957;49.434;8.684;2023-07-13T09:24:45;3.72;;;1.52;;
24897;SDS011;12957;49.434;8.684;2023-07-13T09:27:31;4.97;;;1.52;;
24897;SDS011;12957;49.434;8.684;2023-07-13T09:32:45;7.03;;;1.52;;
24897;SDS011;12957;49.434;8.684;2023-07-13T09:35:15;2.33;;;1.40;;
24897;SDS011;12957;49.434;8.684;2023-07-13T09:37:46;2.03;;;1.30;;
24897;SDS011;12957;49.434;8.684;2023-07-13T09:40:21;3.45;;;1.55;;
24897;SDS011;12957;49.434;8.684;2023-07-13T09:42:55;5.40;;;1.77;;
24897;SDS011;12957;49.434;8.684;2023-07-13T09:45:28;2.75;;;1.65;;
24897;SDS011;12957;49.434;8.684;2023-07-13T09:48:10;3.60;;;1.38;;
24897;SDS011;12957;49.434;8.684;2023-07-13T09:50:37;3.05;;;1.08;;
24897;SDS011;12957;49.434;8.684;2023-07-13T09:53:03;3.83;;;1.50;;
24897;SDS011;12957;49.434;8.684;2023-07-13T09:55:32;4.07;;;1.85;;
24897;SDS011;12957;49.434;8.684;2023-07-13T09:58:42;3.08;;;1.63;;
24897;SDS011;12957;49.434;8.684;2023-07-13T10:00:54;5.50;;;1.70;;
24897;SDS011;12957;49.434;8.684;2023-07-13T10:03:28;3.30;;;1.70;;
24897;SDS011;12957;49.434;8.684;2023-07-13T10:05:57;2.20;;;1.27;;
24897;SDS011;12957;49.434;8.684;2023-07-13T10:08:29;1.30;;;1.20;;
24897;SDS011;12957;49.434;8.684;2023-07-13T10:10:59;3.55;;;1.63;;
24897;SDS011;12957;49.434;8.684;2023-07-13T10:13:29;2.45;;;1.48;;
24897;SDS011;12957;49.434;8.684;2023-07-13T10:15:57;3.53;;;1.33;;
24897;SDS011;12957;49.434;8.684;2023-07-13T10:18:24;4.53;;;1.40;;
24897;SDS011;12957;49.434;8.684;2023-07-13T10:21:12;2.67;;;1.45;;
24897;SDS011;12957;49.434;8.684;2023-07-13T10:23:43;2.05;;;1.20;;
24897;SDS011;12957;49.434;8.684;2023-07-13T10:26:16;8.52;;;1.60;;
24897;SDS011;12957;49.434;8.684;2023-07-13T10:28:45;6.25;;;1.67;;
24897;SDS011;12957;49.434;8.684;2023-07-13T10:31:14;4.55;;;1.50;;
24897;SDS011;12957;49.434;8.684;2023-07-13T10:33:41;7.70;;;1.70;;
24897;SDS011;12957;49.434;8.684;2023-07-13T10:36:14;2.10;;;1.50;;
24897;SDS011;12957;49.434;8.684;2023-07-13T10:38:43;2.85;;;1.40;;
24897;SDS011;12957;49.434;8.684;2023-07-13T10:41:10;6.00;;;1.60;;
24897;SDS011;12957;49.434;8.684;2023-07-13T10:43:38;5.68;;;1.60;;
24897;SDS011;12957;49.434;8.684;2023-07-13T10:46:06;4.63;;;1.42;;
24897;SDS011;12957;49.434;8.684;2023-07-13T10:48:34;6.28;;;1.40;;
24897;SDS011;12957;49.434;8.684;2023-07-13T10:51:02;2.80;;;1.38;;
24897;SDS011;12957;49.434;8.684;2023-07-13T10:53:38;5.80;;;1.30;;
24897;SDS011;12957;49.434;8.684;2023-07-13T10:56:06;2.55;;;1.48;;
24897;SDS011;12957;49.434;8.684;2023-07-13T10:58:44;3.40;;;1.55;;
24897;SDS011;12957;49.434;8.684;2023-07-13T11:01:15;2.65;;;1.35;;
24897;SDS011;12957;49.434;8.684;2023-07-13T11:06:30;3.75;;;1.33;;
24897;SDS011;12957;49.434;8.684;2023-07-13T11:09:18;3.97;;;1.50;;
24897;SDS011;12957;49.434;8.684;2023-07-13T11:12:08;2.58;;;1.40;;
24897;SDS011;12957;49.434;8.684;2023-07-13T11:20:23;8.20;;;1.60;;
24897;SDS011;12957;49.434;8.684;2023-07-13T11:25:34;3.58;;;1.10;;
24897;SDS011;12957;49.434;8.684;2023-07-13T11:30:38;2.20;;;1.30;;
24897;SDS011;12957;49.434;8.684;2023-07-13T11:33:16;1.85;;;1.10;;
24897;SDS011;12957;49.434;8.684;2023-07-13T11:35:49;3.20;;;1.35;;
24897;SDS011;12957;49.434;8.684;2023-07-13T11:38:22;5.57;;;1.50;;
24897;SDS011;12957;49.434;8.684;2023-07-13T11:40:53;3.15;;;1.20;;
24897;SDS011;12957;49.434;8.684;2023-07-13T11:43:20;1.65;;;1.20;;
24897;SDS011;12957;49.434;8.684;2023-07-13T11:45:48;2.08;;;1.23;;
24897;SDS011;12957;49.434;8.684;2023-07-13T11:48:33;2.97;;;1.15;;
24897;SDS011;12957;49.434;8.684;2023-07-13T11:51:03;2.35;;;1.45;;
24897;SDS011;12957;49.434;8.684;2023-07-13T11:53:32;2.47;;;1.42;;
24897;SDS011;12957;49.434;8.684;2023-07-13T11:56:04;2.10;;;1.20;;
24897;SDS011;12957;49.434;8.684;2023-07-13T11:58:29;3.58;;;1.40;;
24897;SDS011;12957;49.434;8.684;2023-07-13T12:00:55;6.38;;;1.40;;
24897;SDS011;12957;49.434;8.684;2023-07-13T12:03:23;1.67;;;1.10;;
24897;SDS011;12957;49.434;8.684;2023-07-13T12:06:00;2.70;;;1.42;;
24897;SDS011;12957;49.434;8.684;2023-07-13T12:08:31;2.40;;;1.40;;
24897;SDS011;12957;49.434;8.684;2023-07-13T12:11:00;1.35;;;1.17;;
24897;SDS011;12957;49.434;8.684;2023-07-13T12:13:36;4.43;;;1.30;;
24897;SDS011;12957;49.434;8.684;2023-07-13T12:16:07;1.75;;;1.33;;
24897;SDS011;12957;49.434;8.684;2023-07-13T12:18:37;2.17;;;1.17;;
24897;SDS011;12957;49.434;8.684;2023-07-13T12:21:03;4.32;;;1.30;;
24897;SDS011;12957;49.434;8.684;2023-07-13T12:23:33;7.88;;;1.55;;
24897;SDS011;12957;49.434;8.684;2023-07-13T12:26:02;9.13;;;1.42;;
24897;SDS011;12957;49.434;8.684;2023-07-13T12:28:36;3.10;;;1.25;;
24897;SDS011;12957;49.434;8.684;2023-07-13T12:31:05;3.63;;;1.17;;
24897;SDS011;12957;49.434;8.684;2023-07-13T12:33:45;4.90;;;1.40;;
24897;SDS011;12957;49.434;8.684;2023-07-13T12:36:11;4.38;;;1.42;;
24897;SDS011;12957;49.434;8.684;2023-07-13T12:38:37;1.00;;;1.00;;
24897;SDS011;12957;49.434;8.684;2023-07-13T12:41:03;3.70;;;1.33;;
24897;SDS011;12957;49.434;8.684;2023-07-13T12:43:28;2.63;;;1.23;;
24897;SDS011;12957;49.434;8.684;2023-07-13T12:46:01;2.05;;;1.30;;
24897;SDS011;12957;49.434;8.684;2023-07-13T12:48:28;3.97;;;1.30;;
24897;SDS011;12957;49.434;8.684;2023-07-13T12:50:55;5.15;;;1.30;;
24897;SDS011;12957;49.434;8.684;2023-07-13T12:53:22;2.40;;;1.30;;
24897;SDS011;12957;49.434;8.684;2023-07-13T12:55:56;1.55;;;1.20;;
24897;SDS011;12957;49.434;8.684;2023-07-13T12:58:48;4.75;;;1.70;;
24897;SDS011;12957;49.434;8.684;2023-07-13T13:01:15;6.13;;;1.92;;
24897;SDS011;12957;49.434;8.684;2023-07-13T13:03:46;10.88;;;1.50;;
24897;SDS011;12957;49.434;8.684;2023-07-13T13:08:45;4.22;;;1.35;;
24897;SDS011;12957;49.434;8.684;2023-07-13T13:11:11;2.20;;;1.30;;
24897;SDS011;12957;49.434;8.684;2023-07-13T13:13:36;3.88;;;1.30;;
24897;SDS011;12957;49.434;8.684;2023-07-13T13:16:08;1.75;;;1.30;;
24897;SDS011;12957;49.434;8.684;2023-07-13T13:18:36;6.05;;;1.33;;
24897;SDS011;12957;49.434;8.684;2023-07-13T13:21:01;1.83;;;1.30;;
24897;SDS011;12957;49.434;8.684;2023-07-13T13:23:28;2.90;;;1.35;;
24897;SDS011;12957;49.434;8.684;2023-07-13T13:25:53;3.33;;;1.20;;
24897;SDS011;12957;49.434;8.684;2023-07-13T13:28:19;2.85;;;0.95;;
24897;SDS011;12957;49.434;8.684;2023-07-13T13:30:46;3.92;;;1.50;;
24897;SDS011;12957;49.434;8.684;2023-07-13T13:33:13;2.83;;;1.30;;
24897;SDS011;12957;49.434;8.684;2023-07-13T13:35:40;1.35;;;1.25;;
24897;SDS011;12957;49.434;8.684;2023-07-13T13:38:13;4.38;;;1.70;;
24897;SDS011;12957;49.434;8.684;2023-07-13T13:40:39;1.75;;;1.20;;
24897;SDS011;12957;49.434;8.684;2023-07-13T13:43:18;7.00;;;1.70;;
24897;SDS011;12957;49.434;8.684;2023-07-13T13:45:51;2.42;;;1.38;;
24897;SDS011;12957;49.434;8.684;2023-07-13T13:48:17;2.58;;;1.20;;
24897;SDS011;12957;49.434;8.684;2023-07-13T13:50:44;3.47;;;1.38;;
24897;SDS011;12957;49.434;8.684;2023-07-13T13:53:10;4.55;;;1.33;;
24897;SDS011;12957;49.434;8.684;2023-07-13T13:55:37;2.28;;;1.30;;
24897;SDS011;12957;49.434;8.684;2023-07-13T13:58:03;4.95;;;1.52;;
24897;SDS011;12957;49.434;8.684;2023-07-13T14:00:29;2.05;;;1.30;;
24897;SDS011;12957;49.434;8.684;2023-07-13T14:02:55;2.10;;;1.40;;
24897;SDS011;12957;49.434;8.684;2023-07-13T14:05:23;2.58;;;1.23;;
24897;SDS011;12957;49.434;8.684;2023-07-13T14:07:51;1.05;;;1.00;;
24897;SDS011;12957;49.434;8.684;2023-07-13T14:10:18;2.55;;;1.48;;
24897;SDS011;12957;49.434;8.684;2023-07-13T14:12:44;6.93;;;1.83;;
24897;SDS011;12957;49.434;8.684;2023-07-13T14:17:47;2.15;;;1.20;;
24897;SDS011;12957;49.434;8.684;2023-07-13T14:20:16;2.92;;;1.30;;
24897;SDS011;12957;49.434;8.684;2023-07-13T14:22:43;4.47;;;1.40;;
24897;SDS011;12957;49.434;8.684;2023-07-13T14:25:13;1.65;;;1.33;;
24897;SDS011;12957;49.434;8.684;2023-07-13T14:27:39;2.38;;;1.50;;
24897;SDS011;12957;49.434;8.684;2023-07-13T14:30:12;4.80;;;1.45;;
24897;SDS011;12957;49.434;8.684;2023-07-13T14:32:41;2.97;;;1.30;;
24897;SDS011;12957;49.434;8.684;2023-07-13T14:35:07;2.30;;;1.67;;
24897;SDS011;12957;49.434;8.684;2023-07-13T14:37:35;7.20;;;1.58;;
24897;SDS011;12957;49.434;8.684;2023-07-13T14:40:01;1.75;;;1.50;;
24897;SDS011;12957;49.434;8.684;2023-07-13T14:42:27;2.78;;;1.23;;
24897;SDS011;12957;49.434;8.684;2023-07-13T14:44:52;2.22;;;1.60;;
24897;SDS011;12957;49.434;8.684;2023-07-13T14:47:17;3.03;;;1.20;;
24897;SDS011;12957;49.434;8.684;2023-07-13T14:49:43;3.40;;;1.38;;
24897;SDS011;12957;49.434;8.684;2023-07-13T14:54:38;1.88;;;1.35;;
24897;SDS011;12957;49.434;8.684;2023-07-13T14:57:13;2.78;;;1.40;;
24897;SDS011;12957;49.434;8.684;2023-07-13T14:59:39;3.22;;;1.40;;
24897;SDS011;12957;49.434;8.684;2023-07-13T15:02:13;2.13;;;1.50;;
24897;SDS011;12957;49.434;8.684;2023-07-13T15:04:43;2.10;;;1.35;;
24897;SDS011;12957;49.434;8.684;2023-07-13T15:07:09;1.83;;;1.40;;
24897;SDS011;12957;49.434;8.684;2023-07-13T15:09:35;4.88;;;1.48;;
24897;SDS011;12957;49.434;8.684;2023-07-13T15:12:01;1.95;;;1.30;;
24897;SDS011;12957;49.434;8.684;2023-07-13T15:14:26;3.38;;;1.20;;
24897;SDS011;12957;49.434;8.684;2023-07-13T15:16:53;1.85;;;1.35;;
24897;SDS011;12957;49.434;8.684;2023-07-13T15:19:19;2.50;;;1.40;;
24897;SDS011;12957;49.434;8.684;2023-07-13T15:21:46;2.85;;;1.50;;
24897;SDS011;12957;49.434;8.684;2023-07-13T15:24:13;4.93;;;1.50;;
24897;SDS011;12957;49.434;8.684;2023-07-13T15:26:38;3.75;;;1.38;;
24897;SDS011;12957;49.434;8.684;2023-07-13T15:29:04;1.85;;;1.40;;
24897;SDS011;12957;49.434;8.684;2023-07-13T15:31:30;3.10;;;1.30;;
24897;SDS011;12957;49.434;8.684;2023-07-13T15:33:58;8.57;;;1.60;;
24897;SDS011;12957;49.434;8.684;2023-07-13T15:36:24;5.88;;;1.60;;
24897;SDS011;12957;49.434;8.684;2023-07-13T15:38:53;1.52;;;1.40;;